createdAt,value
2023-01-21T00:00:58.681Z,-3275.20
2023-01-21T00:03:25.562Z,-3275.20
2023-01-21T00:05:52.579Z,-3275.20
2023-01-21T00:08:19.455Z,-3275.20
2023-01-21T00:10:46.391Z,-3275.20
2023-01-21T00:13:13.158Z,-3275.20
2023-01-21T00:15:40.004Z,-3275.20
2023-01-21T00:18:07.184Z,-3275.20
2023-01-21T00:20:34.645Z,-3275.20
2023-01-21T00:23:01.780Z,-3275.20
2023-01-21T00:25:28.734Z,-3275.20
2023-01-21T00:27:55.596Z,-3275.20
2023-01-21T00:30:22.574Z,-3275.20
2023-01-21T00:32:49.359Z,-3275.20
2023-01-21T00:35:16.318Z,-3275.20
2023-01-21T00:37:43.071Z,-3275.20
2023-01-21T00:40:10.395Z,-3275.20
2023-01-21T00:42:37.324Z,-3275.20
2023-01-21T00:45:04.426Z,-3275.20
2023-01-21T00:47:31.288Z,-3275.20
2023-01-21T00:49:57.988Z,-3275.10
2023-01-21T00:52:24.790Z,-3275.20
2023-01-21T00:54:51.629Z,-3275.10
2023-01-21T00:57:18.390Z,-3275.10
2023-01-21T00:59:45.436Z,-3275.10
2023-01-21T01:02:12.231Z,-3275.10
2023-01-21T01:04:39.096Z,-3275.10
2023-01-21T01:07:05.888Z,-3275.10
2023-01-21T01:09:32.621Z,-3275.10
2023-01-21T01:11:59.386Z,-3275.20
2023-01-21T01:14:26.181Z,-3275.20
2023-01-21T01:16:52.935Z,-3275.10
2023-01-21T01:19:19.769Z,-3275.10
2023-01-21T01:21:46.593Z,-3275.10
2023-01-21T01:24:13.353Z,-3275.10
2023-01-21T01:26:42.261Z,-3275.10
2023-01-21T01:29:12.496Z,-3275.10
2023-01-21T01:31:39.638Z,-3275.10
2023-01-21T01:34:06.613Z,-3275.10
2023-01-21T01:36:33.414Z,-3275.10
2023-01-21T01:39:00.184Z,-3275.10
2023-01-21T01:41:29.985Z,-3275.10
2023-01-21T01:44:02.268Z,-3275.10
2023-01-21T01:46:32.439Z,-3275.00
2023-01-21T01:49:20.814Z,-3275.00
2023-01-21T01:51:52.577Z,-3275.00
2023-01-21T01:54:25.032Z,-3275.00
2023-01-21T01:56:55.392Z,-3275.00
2023-01-21T01:59:22.248Z,-3275.00
2023-01-21T02:01:49.363Z,-3275.00
2023-01-21T02:04:26.392Z,-3275.00
2023-01-21T02:06:55.525Z,-3275.00
2023-01-21T02:09:23.266Z,-3275.00
2023-01-21T02:11:50.083Z,-3275.00
2023-01-21T02:14:18.784Z,-3275.00
2023-01-21T02:17:23.202Z,-3275.00
2023-01-21T02:20:28.471Z,-3275.00
2023-01-21T02:23:08.206Z,-3274.90
2023-01-21T02:26:40.291Z,-3274.90
2023-01-21T02:29:35.325Z,-3274.90
2023-01-21T02:32:32.357Z,-3274.80
2023-01-21T02:35:23.252Z,-3274.80
2023-01-21T02:38:06.891Z,-3274.80
2023-01-21T02:40:45.531Z,-3274.70
2023-01-21T02:43:18.424Z,-3274.80
2023-01-21T02:46:12.849Z,-3274.80
2023-01-21T02:48:56.569Z,-3274.70
2023-01-21T02:51:24.414Z,-3274.70
2023-01-21T02:53:51.145Z,-3274.70
2023-01-21T02:56:23.373Z,-3274.70
2023-01-21T02:59:04.800Z,-3274.70
2023-01-21T03:02:13.283Z,-3274.70
2023-01-21T03:05:03.827Z,-3274.70
2023-01-21T03:07:35.487Z,-3274.70
2023-01-21T03:10:10.592Z,-3274.70
2023-01-21T03:12:46.503Z,-3274.70
2023-01-21T03:15:45.333Z,-3274.70
2023-01-21T03:18:36.138Z,-3274.70
2023-01-21T03:21:20.333Z,-3274.70
2023-01-21T03:23:49.846Z,-3274.70
2023-01-21T03:26:20.384Z,-3274.70
2023-01-21T03:28:53.126Z,-3274.70
2023-01-21T03:31:25.429Z,-3274.70
2023-01-21T03:33:55.492Z,-3274.70
2023-01-21T03:36:41.135Z,-3274.80
2023-01-21T03:39:18.779Z,-3274.80
2023-01-21T03:41:45.702Z,-3274.70
2023-01-21T03:44:12.509Z,-3274.80
2023-01-21T03:47:11.145Z,-3274.70
2023-01-21T03:49:56.998Z,-3274.70
2023-01-21T03:52:26.038Z,-3274.70
2023-01-21T03:54:53.831Z,-3274.70
2023-01-21T03:57:20.635Z,-3274.70
2023-01-21T03:59:47.389Z,-3274.70
2023-01-21T04:02:19.226Z,-3274.70
2023-01-21T04:04:49.037Z,-3274.70
2023-01-21T04:07:16.595Z,-3274.70
2023-01-21T04:09:43.542Z,-3274.70
2023-01-21T04:12:10.331Z,-3274.70
2023-01-21T04:14:37.350Z,-3274.80
2023-01-21T04:17:05.036Z,-3274.80
2023-01-21T04:19:31.812Z,-3274.80
2023-01-21T04:21:58.722Z,-3274.80
2023-01-21T04:24:25.764Z,-3274.80
2023-01-21T04:26:52.783Z,-3274.80
2023-01-21T04:29:20.743Z,-3274.80
2023-01-21T04:31:48.269Z,-3274.80
2023-01-21T04:34:16.704Z,-3274.80
2023-01-21T04:36:43.527Z,-3274.80
2023-01-21T04:39:11.383Z,-3274.80
2023-01-21T04:41:38.138Z,-3274.80
2023-01-21T04:44:05.118Z,-3274.80
2023-01-21T04:46:31.836Z,-3274.80
2023-01-21T04:48:58.605Z,-3274.70
2023-01-21T04:51:25.447Z,-3274.80
2023-01-21T04:53:52.183Z,-3274.70
2023-01-21T04:56:18.899Z,-3274.70
2023-01-21T04:58:45.675Z,-3274.70
2023-01-21T05:01:12.426Z,-3274.70
2023-01-21T05:03:39.214Z,-3274.80
2023-01-21T05:06:06.214Z,-3274.70
2023-01-21T05:08:32.914Z,-3274.70
2023-01-21T05:10:59.626Z,-3274.70
2023-01-21T05:13:26.427Z,-3274.60
2023-01-21T05:15:53.685Z,-3274.60
2023-01-21T05:18:20.435Z,-3274.60
2023-01-21T05:20:47.179Z,-3274.60
2023-01-21T05:23:13.938Z,-3274.60
2023-01-21T05:25:40.661Z,-3274.60
2023-01-21T05:28:07.936Z,-3274.70
2023-01-21T05:30:34.671Z,-3274.70
2023-01-21T05:33:02.026Z,-3274.70
2023-01-21T05:35:28.964Z,-3274.70
2023-01-21T05:37:55.865Z,-3274.80
2023-01-21T05:40:22.592Z,-3274.80
2023-01-21T05:42:49.304Z,-3274.80
2023-01-21T05:45:16.066Z,-3274.80
2023-01-21T05:47:42.828Z,-3274.90
2023-01-21T05:50:10.775Z,-3274.90
2023-01-21T05:52:37.520Z,-3274.90
2023-01-21T05:55:04.948Z,-3274.90
2023-01-21T05:57:32.340Z,-3275.00
2023-01-21T05:59:59.207Z,-3275.00
2023-01-21T06:02:26.341Z,-3275.00
2023-01-21T06:04:53.137Z,-3275.00
2023-01-21T06:07:20.563Z,-3275.00
2023-01-21T06:09:47.286Z,-3275.00
2023-01-21T06:12:14.038Z,-3275.00
2023-01-21T06:14:40.776Z,-3275.00
2023-01-21T06:17:07.774Z,-3275.10
2023-01-21T06:19:34.591Z,-3275.10
2023-01-21T06:22:01.320Z,-3275.10
2023-01-21T06:24:28.059Z,-3275.10
2023-01-21T06:26:54.788Z,-3275.10
2023-01-21T06:29:21.495Z,-3275.10
2023-01-21T06:31:48.403Z,-3275.00
2023-01-21T06:34:15.431Z,-3275.00
2023-01-21T06:36:42.861Z,-3275.10
2023-01-21T06:39:10.779Z,-3275.10
2023-01-21T06:41:37.632Z,-3275.10
2023-01-21T06:44:04.635Z,-3275.10
2023-01-21T06:46:31.484Z,-3275.10
2023-01-21T06:48:58.571Z,-3275.10
2023-01-21T06:51:25.368Z,-3275.10
2023-01-21T06:53:52.210Z,-3275.10
2023-01-21T06:56:19.140Z,-3275.10
2023-01-21T06:58:45.890Z,-3275.10
2023-01-21T07:01:12.661Z,-3275.10
2023-01-21T07:03:39.560Z,-3275.10
2023-01-21T07:06:06.681Z,-3275.10
2023-01-21T07:08:33.362Z,-3275.10
2023-01-21T07:11:00.127Z,-3275.10
2023-01-21T07:13:26.882Z,-3275.20
2023-01-21T07:15:58.508Z,-3275.20
2023-01-21T07:18:25.554Z,-3275.20
2023-01-21T07:20:52.299Z,-3275.20
2023-01-21T07:23:18.991Z,-3275.20
2023-01-21T07:25:46.269Z,-3275.30
2023-01-21T07:28:12.965Z,-3275.30
2023-01-21T07:30:39.762Z,-3275.30
2023-01-21T07:33:08.015Z,-3275.30
2023-01-21T07:35:35.073Z,-3275.30
2023-01-21T07:38:02.138Z,-3275.40
2023-01-21T07:40:29.156Z,-3275.40
2023-01-21T07:42:56.286Z,-3275.40
2023-01-21T07:45:23.486Z,-3275.40
2023-01-21T07:47:50.386Z,-3275.40
2023-01-21T07:50:17.301Z,-3275.40
2023-01-21T07:52:44.048Z,-3275.50
2023-01-21T07:55:12.596Z,-3275.50
2023-01-21T07:57:39.550Z,-3275.60
2023-01-21T08:00:06.985Z,-3275.60
2023-01-21T08:02:33.885Z,-3275.70
2023-01-21T08:05:00.645Z,-3275.70
2023-01-21T08:07:27.330Z,-3275.60
2023-01-21T08:09:54.245Z,-3275.60
2023-01-21T08:12:20.993Z,-3275.60
2023-01-21T08:14:47.709Z,-3275.60
2023-01-21T08:17:14.699Z,-3275.70
2023-01-21T08:19:41.432Z,-3275.70
2023-01-21T08:22:08.154Z,-3275.70
2023-01-21T08:24:34.931Z,-3275.70
2023-01-21T08:27:01.738Z,-3275.70
2023-01-21T08:29:29.394Z,-3275.80
2023-01-21T08:31:57.298Z,-3275.80
2023-01-21T08:34:24.054Z,-3275.80
2023-01-21T08:36:50.774Z,-3275.80
2023-01-21T08:39:17.608Z,-3275.80
2023-01-21T08:41:44.755Z,-3275.80
2023-01-21T08:44:11.533Z,-3275.90
2023-01-21T08:46:38.275Z,-3275.90
2023-01-21T08:49:05.144Z,-3276.00
2023-01-21T08:51:31.906Z,-3275.90
2023-01-21T08:53:58.844Z,-3276.00
2023-01-21T08:56:25.636Z,-3275.90
2023-01-21T08:58:57.347Z,-3275.90
2023-01-21T09:01:25.686Z,-3276.00
2023-01-21T09:04:00.678Z,-3276.00
2023-01-21T09:06:29.986Z,-3276.10
2023-01-21T09:08:56.935Z,-3276.00
2023-01-21T09:11:24.730Z,-3276.00
2023-01-21T09:13:51.477Z,-3276.00
2023-01-21T09:16:20.612Z,-3276.00
2023-01-21T09:18:47.536Z,-3276.00
2023-01-21T09:21:15.106Z,-3276.10
2023-01-21T09:23:42.588Z,-3276.10
2023-01-21T09:26:16.540Z,-3276.20
2023-01-21T09:28:45.475Z,-3276.30
2023-01-21T09:31:15.271Z,-3276.40
2023-01-21T09:33:47.245Z,-3276.40
2023-01-21T09:36:16.851Z,-3276.50
2023-01-21T09:38:44.749Z,-3276.50
2023-01-21T09:41:39.752Z,-3276.50
2023-01-21T09:44:15.624Z,-3276.40
2023-01-21T09:46:45.327Z,-3276.40
2023-01-21T09:49:33.137Z,-3276.50
2023-01-21T09:52:48.726Z,-3276.50
2023-01-21T09:55:31.375Z,-3276.50
2023-01-21T09:58:19.278Z,-3276.60
2023-01-21T10:00:52.867Z,-3276.60
2023-01-21T10:03:22.734Z,-3276.70
2023-01-21T10:06:13.676Z,-3276.70
2023-01-21T10:08:51.963Z,-3276.70
2023-01-21T10:11:46.317Z,-3276.70
2023-01-21T10:14:47.339Z,-3276.70
2023-01-21T10:17:25.504Z,-3276.70
2023-01-21T10:20:21.479Z,-3276.70
2023-01-21T10:23:02.394Z,-3276.70
2023-01-21T10:25:33.472Z,-3276.70
2023-01-21T10:28:14.048Z,-3276.70
2023-01-21T10:30:45.174Z,-3276.70
2023-01-21T10:33:26.555Z,-3276.70
2023-01-21T10:36:14.238Z,0.00
2023-01-21T10:39:22.655Z,0.00
2023-01-21T10:42:11.832Z,0.00
2023-01-21T10:45:08.217Z,0.00
2023-01-21T10:47:55.471Z,0.00
2023-01-21T10:50:31.701Z,0.00
2023-01-21T10:53:10.497Z,0.10
2023-01-21T10:55:48.742Z,0.20
2023-01-21T10:58:35.000Z,0.20
2023-01-21T11:01:06.761Z,0.30
2023-01-21T11:03:46.688Z,0.30
2023-01-21T11:06:17.403Z,0.30
2023-01-21T11:08:48.097Z,0.40
2023-01-21T11:11:18.462Z,0.40
2023-01-21T11:13:45.633Z,0.30
2023-01-21T11:16:12.403Z,0.30
2023-01-21T11:18:42.815Z,0.30
2023-01-21T11:21:25.083Z,0.30
2023-01-21T11:23:57.292Z,0.20
2023-01-21T11:26:30.411Z,0.20
2023-01-21T11:29:08.682Z,0.00
2023-01-21T11:31:36.050Z,0.10
2023-01-21T11:34:23.018Z,0.00
2023-01-21T11:37:02.147Z,0.00
2023-01-21T11:39:34.619Z,0.00
2023-01-21T11:42:15.667Z,0.00
2023-01-21T11:45:04.277Z,0.10
2023-01-21T11:47:38.597Z,0.20
2023-01-21T11:50:13.028Z,0.20
2023-01-21T11:52:39.934Z,0.30
2023-01-21T11:55:21.695Z,0.30
2023-01-21T11:57:52.240Z,0.20
2023-01-21T12:00:21.514Z,0.20
2023-01-21T12:02:56.612Z,0.10
2023-01-21T12:05:31.708Z,0.10
2023-01-21T12:07:59.236Z,0.10
2023-01-21T12:10:33.466Z,0.10
2023-01-21T12:13:18.566Z,0.10
2023-01-21T12:16:10.083Z,0.20
2023-01-21T12:18:46.687Z,0.30
2023-01-21T12:21:40.651Z,0.40
2023-01-21T12:24:27.882Z,0.40
2023-01-21T12:27:13.426Z,0.40
2023-01-21T12:30:21.588Z,0.40
2023-01-21T12:32:56.679Z,0.40
2023-01-21T12:35:45.903Z,0.50
2023-01-21T12:38:36.480Z,0.60
2023-01-21T12:41:14.199Z,0.60
2023-01-21T12:43:46.116Z,0.70
2023-01-21T12:46:34.588Z,0.80
2023-01-21T12:49:27.498Z,1.00
2023-01-21T12:51:59.860Z,1.20
2023-01-21T12:55:04.540Z,1.10
2023-01-21T12:57:48.186Z,0.90
2023-01-21T13:00:23.078Z,0.80
2023-01-21T13:03:08.795Z,0.80
2023-01-21T13:05:47.633Z,0.80
2023-01-21T13:08:40.618Z,0.80
2023-01-21T13:11:22.839Z,0.90
2023-01-21T13:13:55.717Z,1.40
2023-01-21T13:16:26.350Z,1.60
2023-01-21T13:18:55.013Z,1.90
2023-01-21T13:21:39.089Z,1.90
2023-01-21T13:24:28.157Z,2.20
2023-01-21T13:27:12.677Z,2.00
2023-01-21T13:29:45.258Z,2.80
2023-01-21T13:32:31.155Z,2.70
2023-01-21T13:35:23.646Z,2.80
2023-01-21T13:37:50.963Z,2.30
2023-01-21T13:40:39.649Z,2.00
2023-01-21T13:43:27.535Z,1.90
2023-01-21T13:46:03.165Z,1.60
2023-01-21T13:48:49.470Z,1.30
2023-01-21T13:51:35.106Z,1.30
2023-01-21T13:54:28.006Z,1.10
2023-01-21T13:57:22.282Z,1.10
2023-01-21T13:59:51.686Z,0.90
2023-01-21T14:02:26.141Z,1.00
2023-01-21T14:05:09.602Z,1.00
2023-01-21T14:07:43.591Z,1.00
2023-01-21T14:10:29.275Z,0.80
2023-01-21T14:13:12.939Z,0.80
2023-01-21T14:15:51.558Z,0.80
2023-01-21T14:18:47.379Z,0.80
2023-01-21T14:21:38.800Z,0.80
2023-01-21T14:25:10.598Z,0.60
2023-01-21T14:28:12.483Z,0.60
2023-01-21T14:30:49.640Z,0.60
2023-01-21T14:33:23.662Z,0.50
2023-01-21T14:36:45.909Z,0.40
2023-01-21T14:39:31.334Z,0.50
2023-01-21T14:42:04.694Z,0.40
2023-01-21T14:44:36.974Z,0.40
2023-01-21T14:47:30.226Z,0.40
2023-01-21T14:49:59.018Z,0.30
2023-01-21T14:52:36.015Z,0.30
2023-01-21T14:55:03.560Z,0.20
2023-01-21T14:57:34.713Z,0.30
2023-01-21T15:00:21.431Z,0.30
2023-01-21T15:02:54.464Z,0.20
2023-01-21T15:05:27.744Z,0.20
2023-01-21T15:08:04.303Z,0.10
2023-01-21T15:10:37.440Z,0.10
2023-01-21T15:13:20.880Z,0.10
2023-01-21T15:16:07.697Z,0.10
2023-01-21T15:18:40.776Z,0.00
2023-01-21T15:21:37.298Z,0.00
2023-01-21T15:24:22.986Z,0.00
2023-01-21T15:27:14.533Z,0.00
2023-01-21T15:29:46.612Z,0.00
2023-01-21T15:32:36.699Z,0.00
2023-01-21T15:35:24.604Z,0.00
2023-01-21T15:38:13.874Z,0.00
2023-01-21T15:41:00.139Z,0.00
2023-01-21T15:43:36.708Z,0.00
2023-01-21T15:46:15.736Z,-3276.70
2023-01-21T15:48:53.296Z,0.00
2023-01-21T15:51:26.280Z,0.00
2023-01-21T15:54:20.317Z,-3276.70
2023-01-21T15:57:06.365Z,-3276.70
2023-01-21T15:59:48.538Z,-3276.70
2023-01-21T16:02:28.187Z,-3276.70
2023-01-21T16:05:21.112Z,-3276.70
2023-01-21T16:08:03.191Z,-3276.70
2023-01-21T16:10:34.554Z,-3276.70
2023-01-21T16:13:29.243Z,-3276.70
2023-01-21T16:16:17.893Z,-3276.70
2023-01-21T16:18:50.845Z,-3276.70
2023-01-21T16:21:24.531Z,-3276.70
2023-01-21T16:23:56.065Z,-3276.70
2023-01-21T16:26:32.869Z,-3276.70
2023-01-21T16:28:59.884Z,-3276.60
2023-01-21T16:31:26.774Z,-3276.60
2023-01-21T16:33:53.878Z,-3276.60
2023-01-21T16:36:20.944Z,-3276.60
2023-01-21T16:38:48.328Z,-3276.50
2023-01-21T16:41:15.343Z,-3276.50
2023-01-21T16:43:47.561Z,-3276.60
2023-01-21T16:46:17.442Z,-3276.50
2023-01-21T16:48:49.925Z,-3276.50
2023-01-21T16:51:24.013Z,-3276.50
2023-01-21T16:53:54.332Z,-3276.40
2023-01-21T16:56:29.731Z,-3276.30
2023-01-21T16:58:57.547Z,-3276.30
2023-01-21T17:01:27.636Z,-3276.30
2023-01-21T17:03:55.385Z,-3276.30
2023-01-21T17:06:31.742Z,-3276.30
2023-01-21T17:09:02.039Z,-3276.30
2023-01-21T17:11:29.127Z,-3276.20
2023-01-21T17:13:55.842Z,-3276.20
2023-01-21T17:16:29.643Z,-3276.20
2023-01-21T17:18:58.151Z,-3276.30
2023-01-21T17:22:01.386Z,-3276.20
2023-01-21T17:24:30.781Z,-3276.20
2023-01-21T17:27:07.931Z,-3276.20
2023-01-21T17:29:34.932Z,-3276.20
2023-01-21T17:32:04.614Z,-3276.30
2023-01-21T17:34:34.697Z,-3276.20
2023-01-21T17:37:02.272Z,-3276.20
2023-01-21T17:39:57.953Z,-3276.20
2023-01-21T17:42:29.617Z,-3276.30
2023-01-21T17:45:00.175Z,-3276.30
2023-01-21T17:47:31.218Z,-3276.30
2023-01-21T17:50:19.716Z,-3276.20
2023-01-21T17:53:06.952Z,-3276.20
2023-01-21T17:55:35.077Z,-3276.20
2023-01-21T17:58:05.734Z,-3276.20
2023-01-21T18:00:38.011Z,-3276.20
2023-01-21T18:03:05.046Z,-3276.10
2023-01-21T18:05:32.147Z,-3276.10
2023-01-21T18:07:59.182Z,-3276.10
2023-01-21T18:10:28.526Z,-3276.10
2023-01-21T18:12:56.959Z,-3276.10
2023-01-21T18:15:25.159Z,-3276.10
2023-01-21T18:17:57.174Z,-3276.10
2023-01-21T18:20:26.581Z,-3276.10
2023-01-21T18:22:55.280Z,-3276.10
2023-01-21T18:25:23.336Z,-3276.00
2023-01-21T18:27:56.240Z,-3276.10
2023-01-21T18:30:28.361Z,-3276.00
2023-01-21T18:32:56.518Z,-3276.00
2023-01-21T18:35:28.730Z,-3276.00
2023-01-21T18:37:55.864Z,-3276.00
2023-01-21T18:40:24.008Z,-3276.00
2023-01-21T18:42:52.794Z,-3276.00
2023-01-21T18:45:22.891Z,-3275.90
2023-01-21T18:47:50.833Z,-3275.90
2023-01-21T18:50:20.492Z,-3276.00
2023-01-21T18:52:47.479Z,-3276.00
2023-01-21T18:55:15.369Z,-3276.00
2023-01-21T18:57:44.692Z,-3275.90
2023-01-21T19:00:14.897Z,-3275.90
2023-01-21T19:02:41.730Z,-3275.90
2023-01-21T19:05:08.558Z,-3275.90
2023-01-21T19:07:35.416Z,-3275.90
2023-01-21T19:10:02.386Z,-3275.80
2023-01-21T19:12:29.605Z,-3275.90
2023-01-21T19:14:56.335Z,-3275.90
2023-01-21T19:17:29.100Z,-3275.90
2023-01-21T19:19:56.904Z,-3275.90
2023-01-21T19:22:24.662Z,-3275.90
2023-01-21T19:24:51.392Z,-3275.80
2023-01-21T19:27:27.899Z,-3275.90
2023-01-21T19:29:54.699Z,-3275.80
2023-01-21T19:32:21.529Z,-3275.90
2023-01-21T19:34:48.300Z,-3275.90
2023-01-21T19:37:17.105Z,-3275.90
2023-01-21T19:39:44.071Z,-3275.90
2023-01-21T19:42:14.718Z,-3275.90
2023-01-21T19:44:41.954Z,-3275.90
2023-01-21T19:47:27.609Z,-3275.90
2023-01-21T19:49:55.326Z,-3275.90
2023-01-21T19:52:22.118Z,-3275.90
2023-01-21T19:54:49.261Z,-3275.90
2023-01-21T19:57:17.244Z,-3275.90
2023-01-21T19:59:45.316Z,-3276.00
2023-01-21T20:02:12.301Z,-3276.00
2023-01-21T20:04:39.096Z,-3276.00
2023-01-21T20:07:07.072Z,-3276.00
2023-01-21T20:09:35.604Z,-3276.00
2023-01-21T20:12:04.350Z,-3276.00
2023-01-21T20:14:33.271Z,-3276.00
2023-01-21T20:17:00.045Z,-3276.00
2023-01-21T20:19:26.991Z,-3276.00
2023-01-21T20:22:01.998Z,-3276.10
2023-01-21T20:24:33.707Z,-3276.00
2023-01-21T20:27:05.170Z,-3276.00
2023-01-21T20:29:33.335Z,-3276.10
2023-01-21T20:32:00.206Z,-3276.10
2023-01-21T20:34:28.248Z,-3276.10
2023-01-21T20:36:56.000Z,-3276.00
2023-01-21T20:39:22.983Z,-3276.00
2023-01-21T20:41:49.725Z,-3276.00
2023-01-21T20:44:16.665Z,-3276.10
2023-01-21T20:46:45.710Z,-3276.20
2023-01-21T20:49:14.005Z,-3276.10
2023-01-21T20:51:41.018Z,-3276.00
2023-01-21T20:54:08.067Z,-3276.10
2023-01-21T20:56:34.907Z,-3276.10
2023-01-21T20:59:01.699Z,-3276.10
2023-01-21T21:01:31.142Z,-3276.00
2023-01-21T21:03:58.382Z,-3276.00
2023-01-21T21:06:28.631Z,-3276.00
2023-01-21T21:08:55.667Z,-3276.00
2023-01-21T21:11:23.137Z,-3275.90
2023-01-21T21:13:52.138Z,-3275.90
2023-01-21T21:16:20.016Z,-3275.80
2023-01-21T21:18:47.835Z,-3275.80
2023-01-21T21:21:16.449Z,-3275.80
2023-01-21T21:23:46.558Z,-3275.80
2023-01-21T21:26:22.067Z,-3275.80
2023-01-21T21:28:49.896Z,-3275.90
2023-01-21T21:31:18.022Z,-3275.90
2023-01-21T21:33:44.843Z,-3275.90
2023-01-21T21:36:23.059Z,-3276.00
2023-01-21T21:38:51.989Z,-3276.00
2023-01-21T21:41:39.109Z,-3276.00
2023-01-21T21:44:07.425Z,-3276.00
2023-01-21T21:46:53.708Z,-3275.90
2023-01-21T21:49:20.450Z,-3275.90
2023-01-21T21:51:47.545Z,-3275.90
2023-01-21T21:54:16.032Z,-3275.90
2023-01-21T21:56:43.379Z,-3276.00
2023-01-21T21:59:12.270Z,-3275.90
2023-01-21T22:01:40.608Z,-3275.90
2023-01-21T22:04:07.397Z,-3275.90
2023-01-21T22:06:34.559Z,-3275.90
2023-01-21T22:09:01.852Z,-3275.80
2023-01-21T22:11:29.475Z,-3275.80
2023-01-21T22:13:56.876Z,-3275.80
2023-01-21T22:16:26.437Z,-3275.80
2023-01-21T22:18:54.549Z,-3275.80
2023-01-21T22:21:26.620Z,-3275.80
2023-01-21T22:23:54.655Z,-3275.90
2023-01-21T22:26:23.876Z,-3275.90
2023-01-21T22:28:51.308Z,-3275.90
2023-01-21T22:31:23.643Z,-3275.90
2023-01-21T22:33:51.511Z,-3275.90
2023-01-21T22:36:21.035Z,-3275.80
2023-01-21T22:38:48.221Z,-3275.90
2023-01-21T22:41:17.671Z,-3275.90
2023-01-21T22:43:48.031Z,-3275.80
2023-01-21T22:46:17.556Z,-3275.80
2023-01-21T22:48:44.452Z,-3275.80
2023-01-21T22:51:15.790Z,-3275.80
2023-01-21T22:53:45.484Z,-3275.80
2023-01-21T22:56:14.062Z,-3275.80
2023-01-21T22:58:41.280Z,-3275.80
2023-01-21T23:01:08.962Z,-3275.80
2023-01-21T23:03:37.196Z,-3275.70
2023-01-21T23:06:05.511Z,-3275.70
2023-01-21T23:08:32.305Z,-3275.70
2023-01-21T23:11:03.918Z,-3275.70
2023-01-21T23:13:31.609Z,-3275.70
2023-01-21T23:15:59.080Z,-3275.70
2023-01-21T23:18:27.689Z,-3275.70
2023-01-21T23:20:55.154Z,-3275.70
2023-01-21T23:23:22.250Z,-3275.70
2023-01-21T23:25:49.529Z,-3275.60
2023-01-21T23:28:16.633Z,-3275.60
2023-01-21T23:30:43.752Z,-3275.50
2023-01-21T23:33:11.415Z,-3275.50
2023-01-21T23:35:38.143Z,-3275.40
2023-01-21T23:38:04.943Z,-3275.30
2023-01-21T23:40:31.692Z,-3275.30
2023-01-21T23:42:58.449Z,-3275.20
2023-01-21T23:45:25.215Z,-3275.20
2023-01-21T23:47:52.090Z,-3275.20
2023-01-21T23:50:19.017Z,-3275.10
2023-01-21T23:52:45.954Z,-3275.10
2023-01-21T23:55:14.573Z,-3275.00
2023-01-21T23:57:41.347Z,-3275.10
